createdAt,value
2019-04-10T00:00:57.551Z,977.98
2019-04-10T00:01:58.083Z,977.94
2019-04-10T00:02:57.788Z,977.96
2019-04-10T00:03:57.431Z,977.97
2019-04-10T00:04:57.390Z,977.94
2019-04-10T00:05:58.337Z,977.99
2019-04-10T00:07:08.454Z,977.99
2019-04-10T00:07:57.611Z,977.92
2019-04-10T00:08:57.235Z,977.94
2019-04-10T00:09:57.301Z,977.91
2019-04-10T00:10:57.151Z,977.94
2019-04-10T00:11:57.127Z,977.95
2019-04-10T00:12:58.169Z,977.98
2019-04-10T00:13:57.031Z,977.97
2019-04-10T00:14:57.002Z,977.96
2019-04-10T00:15:57.036Z,977.95
2019-04-10T00:16:56.914Z,977.93
2019-04-10T00:17:57.693Z,977.96
2019-04-10T00:18:56.839Z,977.96
2019-04-10T00:19:56.793Z,977.98
2019-04-10T00:20:56.853Z,978.01
2019-04-10T00:21:57.716Z,977.96
2019-04-10T00:22:56.671Z,978.01
2019-04-10T00:23:57.614Z,977.97
2019-04-10T00:24:56.662Z,978.00
2019-04-10T00:25:57.272Z,978.02
2019-04-10T00:26:56.517Z,978.04
2019-04-10T00:27:56.562Z,978.02
2019-04-10T00:28:56.439Z,978.02
2019-04-10T00:29:56.527Z,978.01
2019-04-10T00:30:56.356Z,978.08
2019-04-10T00:31:56.366Z,978.04
2019-04-10T00:32:56.461Z,978.03
2019-04-10T00:33:56.951Z,978.00
2019-04-10T00:34:56.193Z,978.00
2019-04-10T00:35:56.198Z,978.03
2019-04-10T00:36:56.119Z,978.00
2019-04-10T00:37:56.073Z,978.03
2019-04-10T00:38:56.037Z,978.02
2019-04-10T00:39:57.035Z,977.97
2019-04-10T00:40:55.958Z,978.03
2019-04-10T00:41:56.674Z,978.05
2019-04-10T00:42:57.113Z,978.02
2019-04-10T00:43:55.852Z,977.98
2019-04-10T00:44:56.393Z,977.99
2019-04-10T00:45:55.785Z,978.01
2019-04-10T00:46:56.856Z,977.98
2019-04-10T00:47:55.685Z,978.04
2019-04-10T00:48:56.471Z,978.08
2019-04-10T00:49:55.797Z,978.10
2019-04-10T00:50:55.557Z,978.08
2019-04-10T00:51:55.619Z,978.06
2019-04-10T00:52:55.474Z,978.09
2019-04-10T00:53:55.440Z,978.04
2019-04-10T00:54:55.433Z,978.07
2019-04-10T00:55:56.377Z,978.03
2019-04-10T00:56:55.314Z,978.04
2019-04-10T00:57:56.110Z,978.03
2019-04-10T00:58:55.435Z,977.99
2019-04-10T00:59:55.200Z,977.99
2019-04-10T01:00:55.167Z,977.98
2019-04-10T01:01:56.201Z,977.98
2019-04-10T01:02:55.074Z,977.99
2019-04-10T01:03:56.336Z,977.98
2019-04-10T01:04:55.077Z,977.98
2019-04-10T01:05:55.472Z,977.96
2019-04-10T01:06:54.918Z,977.96
2019-04-10T01:07:55.972Z,977.94
2019-04-10T01:08:55.157Z,977.98
2019-04-10T01:09:55.584Z,977.98
2019-04-10T01:10:54.797Z,977.97
2019-04-10T01:11:55.225Z,977.97
2019-04-10T01:12:54.704Z,977.94
2019-04-10T01:13:54.639Z,977.98
2019-04-10T01:14:54.597Z,977.97
2019-04-10T01:15:55.172Z,977.96
2019-04-10T01:16:54.560Z,977.93
2019-04-10T01:17:54.814Z,977.96
2019-04-10T01:18:55.138Z,977.99
2019-04-10T01:19:54.503Z,977.97
2019-04-10T01:20:54.364Z,977.99
2019-04-10T01:21:54.870Z,978.01
2019-04-10T01:22:55.166Z,977.95
2019-04-10T01:23:55.230Z,977.93
2019-04-10T01:24:54.404Z,977.95
2019-04-10T01:25:54.732Z,977.97
2019-04-10T01:26:54.119Z,977.97
2019-04-10T01:27:54.272Z,977.94
2019-04-10T01:28:54.218Z,978.02
2019-04-10T01:29:53.997Z,977.98
2019-04-10T01:30:54.864Z,977.96
2019-04-10T01:31:53.921Z,977.97
2019-04-10T01:32:54.445Z,977.95
2019-04-10T01:33:54.733Z,977.98
2019-04-10T01:34:53.900Z,977.95
2019-04-10T01:35:54.331Z,977.99
2019-04-10T01:36:54.590Z,977.99
2019-04-10T01:37:57.682Z,977.98
2019-04-10T01:38:53.784Z,977.97
2019-04-10T01:39:54.788Z,977.97
2019-04-10T01:40:53.561Z,977.99
2019-04-10T01:41:54.291Z,977.99
2019-04-10T01:43:02.384Z,978.00
2019-04-10T01:43:53.444Z,978.00
2019-04-10T01:44:53.404Z,977.98
2019-04-10T01:45:53.660Z,977.98
2019-04-10T01:46:53.319Z,977.96
2019-04-10T01:47:53.365Z,977.98
2019-04-10T01:48:53.359Z,977.98
2019-04-10T01:49:53.750Z,978.01
2019-04-10T01:50:53.165Z,977.99
2019-04-10T01:51:53.132Z,977.96
2019-04-10T01:52:53.424Z,977.97
2019-04-10T01:53:53.044Z,977.98
2019-04-10T01:54:53.011Z,977.99
2019-04-10T01:55:53.509Z,977.98
2019-04-10T01:56:52.926Z,977.99
2019-04-10T01:57:52.885Z,978.00
2019-04-10T01:58:53.742Z,977.97
2019-04-10T01:59:52.803Z,977.98
2019-04-10T02:00:52.766Z,978.00
2019-04-10T02:01:52.726Z,977.99
2019-04-10T02:02:53.811Z,977.98
2019-04-10T02:03:52.643Z,978.01
2019-04-10T02:04:53.826Z,978.02
2019-04-10T02:05:52.672Z,978.04
2019-04-10T02:06:52.522Z,978.02
2019-04-10T02:08:01.264Z,978.00
2019-04-10T02:08:52.444Z,978.04
2019-04-10T02:09:52.410Z,977.99
2019-04-10T02:10:52.362Z,978.00
2019-04-10T02:11:52.403Z,977.98
2019-04-10T02:12:52.673Z,977.98
2019-04-10T02:13:52.246Z,977.99
2019-04-10T02:14:52.315Z,977.99
2019-04-10T02:15:52.425Z,977.98
2019-04-10T02:16:52.125Z,978.02
2019-04-10T02:17:52.873Z,977.98
2019-04-10T02:18:52.073Z,978.01
2019-04-10T02:19:52.001Z,978.04
2019-04-10T02:20:51.964Z,978.02
2019-04-10T02:21:51.924Z,978.02
2019-04-10T02:22:51.950Z,978.03
2019-04-10T02:23:52.412Z,977.98
2019-04-10T02:24:51.804Z,977.99
2019-04-10T02:25:52.753Z,978.02
2019-04-10T02:26:51.938Z,977.99
2019-04-10T02:27:51.683Z,978.00
2019-04-10T02:28:51.647Z,978.02
2019-04-10T02:29:52.316Z,978.04
2019-04-10T02:30:51.891Z,977.99
2019-04-10T02:31:52.866Z,977.99
2019-04-10T02:32:52.907Z,978.00
2019-04-10T02:33:51.780Z,977.96
2019-04-10T02:34:52.971Z,977.98
2019-04-10T02:35:52.529Z,978.00
2019-04-10T02:36:52.845Z,978.00
2019-04-10T02:37:55.428Z,977.96
2019-04-10T02:39:03.082Z,977.99
2019-04-10T02:39:55.826Z,977.96
2019-04-10T02:40:51.166Z,977.94
2019-04-10T02:41:52.299Z,977.97
2019-04-10T02:42:51.376Z,977.93
2019-04-10T02:43:51.438Z,977.91
2019-04-10T02:44:52.029Z,977.94
2019-04-10T02:45:51.168Z,977.96
2019-04-10T02:46:51.853Z,977.95
2019-04-10T02:47:51.064Z,977.95
2019-04-10T02:48:51.969Z,977.98
2019-04-10T02:49:52.101Z,977.96
2019-04-10T02:50:51.373Z,977.98
2019-04-10T02:51:51.886Z,977.94
2019-04-10T02:52:51.013Z,977.97
2019-04-10T02:53:53.067Z,978.01
2019-04-10T02:54:51.066Z,977.99
2019-04-10T02:55:51.598Z,977.98
2019-04-10T02:56:50.535Z,977.98
2019-04-10T02:57:51.743Z,977.96
2019-04-10T02:58:51.579Z,977.95
2019-04-10T02:59:51.228Z,977.98
2019-04-10T03:00:53.919Z,977.96
2019-04-10T03:01:51.689Z,977.98
2019-04-10T03:02:51.870Z,977.97
2019-04-10T03:03:51.020Z,977.96
2019-04-10T03:04:50.929Z,977.96
2019-04-10T03:05:51.011Z,978.02
2019-04-10T03:06:51.387Z,978.02
2019-04-10T03:07:50.189Z,977.99
2019-04-10T03:09:05.938Z,977.98
2019-04-10T03:10:05.035Z,978.02
2019-04-10T03:10:56.024Z,978.00
2019-04-10T03:11:49.932Z,977.92
2019-04-10T03:12:49.878Z,977.97
2019-04-10T03:13:51.106Z,977.96
2019-04-10T03:14:50.021Z,977.95
2019-04-10T03:15:49.915Z,977.96
2019-04-10T03:16:49.714Z,978.00
2019-04-10T03:17:50.435Z,977.98
2019-04-10T03:18:49.639Z,977.99
2019-04-10T03:19:49.769Z,977.99
2019-04-10T03:20:49.553Z,977.97
2019-04-10T03:21:49.514Z,977.98
2019-04-10T03:22:49.470Z,977.96
2019-04-10T03:23:49.598Z,977.97
2019-04-10T03:37:42.536Z,978.00
2019-04-10T03:38:54.240Z,978.01
2019-04-10T03:39:42.655Z,978.01
2019-04-10T03:40:42.301Z,978.01
2019-04-10T03:41:42.344Z,978.01
2019-04-10T03:42:43.287Z,978.03
2019-04-10T03:43:42.158Z,978.01
2019-04-10T03:44:42.976Z,978.05
2019-04-10T03:45:42.076Z,978.05
2019-04-10T03:46:42.684Z,978.05
2019-04-10T03:47:41.990Z,978.07
2019-04-10T03:48:42.121Z,978.05
2019-04-10T03:49:42.270Z,978.04
2019-04-10T03:50:41.861Z,978.00
2019-04-10T03:51:42.908Z,978.02
2019-04-10T03:52:41.782Z,978.03
2019-04-10T03:53:42.496Z,978.03
2019-04-10T03:54:41.707Z,978.04
2019-04-10T03:55:41.659Z,978.05
2019-04-10T03:56:42.308Z,978.06
2019-04-10T03:57:42.732Z,978.05
2019-04-10T03:58:41.929Z,978.09
2019-04-10T03:59:42.068Z,978.08
2019-04-10T04:00:42.467Z,978.07
2019-04-10T04:01:41.415Z,978.09
2019-04-10T04:02:42.127Z,978.11
2019-04-10T04:03:41.328Z,978.11
2019-04-10T04:04:41.770Z,978.14
2019-04-10T04:05:41.254Z,978.15
2019-04-10T04:06:41.965Z,978.15
2019-04-10T04:07:41.174Z,978.12
2019-04-10T04:08:41.126Z,978.13
2019-04-10T04:09:41.853Z,978.13
2019-04-10T04:10:41.043Z,978.11
2019-04-10T04:11:41.909Z,978.09
2019-04-10T04:12:40.960Z,978.12
2019-04-10T04:13:41.734Z,978.15
2019-04-10T04:14:40.923Z,978.10
2019-04-10T04:15:40.833Z,978.10
2019-04-10T04:16:41.520Z,978.12
2019-04-10T04:17:40.757Z,978.08
2019-04-10T04:18:41.496Z,978.08
2019-04-10T04:19:40.679Z,978.09
2019-04-10T04:20:41.282Z,978.09
2019-04-10T04:21:41.730Z,978.11
2019-04-10T04:22:41.109Z,978.11
2019-04-10T04:23:40.509Z,978.15
2019-04-10T04:24:40.481Z,978.15
2019-04-10T04:25:40.752Z,978.17
2019-04-10T04:26:40.450Z,978.18
2019-04-10T04:27:40.345Z,978.19
2019-04-10T04:28:40.305Z,978.19
2019-04-10T04:29:41.282Z,978.21
2019-04-10T04:30:51.730Z,978.23
2019-04-10T04:32:52.289Z,978.29
2019-04-10T04:33:44.792Z,978.26
2019-04-10T04:34:45.397Z,978.25
2019-04-10T04:35:44.506Z,978.25
2019-04-10T04:36:45.151Z,978.24
2019-04-10T04:37:44.411Z,978.22
2019-04-10T04:38:45.218Z,978.23
2019-04-10T04:39:45.255Z,978.26
2019-04-10T04:40:44.322Z,978.24
2019-04-10T04:41:44.303Z,978.27
2019-04-10T04:42:44.207Z,978.27
2019-04-10T04:43:45.976Z,978.29
2019-04-10T04:44:44.126Z,978.33
2019-04-10T04:45:44.276Z,978.41
2019-04-10T04:46:44.893Z,978.40
2019-04-10T04:47:44.000Z,978.42
2019-04-10T04:48:43.959Z,978.42
2019-04-10T04:49:44.457Z,978.44
2019-04-10T04:50:43.880Z,978.42
2019-04-10T04:51:43.841Z,978.43
2019-04-10T04:52:43.798Z,978.48
2019-04-10T04:53:44.098Z,978.47
2019-04-10T04:54:43.709Z,978.50
2019-04-10T04:55:43.671Z,978.50
2019-04-10T04:56:44.260Z,978.50
2019-04-10T04:57:43.587Z,978.54
2019-04-10T04:58:43.589Z,978.53
2019-04-10T04:59:43.506Z,978.53
2019-04-10T05:00:43.467Z,978.58
2019-04-10T05:01:43.425Z,978.59
2019-04-10T05:02:43.381Z,978.61
2019-04-10T05:03:44.268Z,978.62
2019-04-10T05:04:43.824Z,978.60
2019-04-10T05:05:43.349Z,978.62
2019-04-10T05:06:43.729Z,978.63
2019-04-10T05:07:54.146Z,978.64
2019-04-10T05:08:43.178Z,978.67
2019-04-10T05:09:43.875Z,978.65
2019-04-10T05:10:43.050Z,978.67
2019-04-10T05:11:43.007Z,978.72
2019-04-10T05:12:43.602Z,978.73
2019-04-10T05:13:42.927Z,978.75
2019-04-10T05:14:43.973Z,978.76
2019-04-10T05:15:42.846Z,978.80
2019-04-10T05:16:43.594Z,978.79
2019-04-10T05:17:42.755Z,978.84
2019-04-10T05:18:43.534Z,978.85
2019-04-10T05:19:42.675Z,978.88
2019-04-10T05:20:47.225Z,978.89
2019-04-10T05:21:43.546Z,978.90
2019-04-10T05:22:43.576Z,978.92
2019-04-10T05:23:42.843Z,978.92
2019-04-10T05:24:42.543Z,978.90
2019-04-10T05:25:43.406Z,978.93
2019-04-10T05:26:42.818Z,978.95
2019-04-10T05:27:43.362Z,978.99
2019-04-10T05:28:42.473Z,978.99
2019-04-10T05:29:43.025Z,978.99
2019-04-10T05:30:43.065Z,979.00
2019-04-10T05:31:42.651Z,979.01
2019-04-10T05:32:42.138Z,979.05
2019-04-10T05:33:42.106Z,979.07
2019-04-10T05:34:43.268Z,979.07
2019-04-10T05:35:42.014Z,979.07
2019-04-10T05:36:42.024Z,979.08
2019-04-10T05:37:41.930Z,979.09
2019-04-10T05:38:41.921Z,979.07
2019-04-10T05:39:48.768Z,979.11
2019-04-10T05:40:42.199Z,979.16
2019-04-10T05:41:41.907Z,979.14
2019-04-10T05:42:41.725Z,979.17
2019-04-10T05:43:42.534Z,979.15
2019-04-10T05:44:42.302Z,979.21
2019-04-10T05:45:42.219Z,979.23
2019-04-10T05:46:41.552Z,979.24
2019-04-10T05:47:42.297Z,979.20
2019-04-10T05:48:41.919Z,979.24
2019-04-10T05:49:41.506Z,979.22
2019-04-10T05:50:52.535Z,979.24
2019-04-10T05:51:41.617Z,979.25
2019-04-10T05:52:41.304Z,979.26
2019-04-10T05:53:41.259Z,979.26
2019-04-10T05:54:41.652Z,979.26
2019-04-10T05:55:41.180Z,979.28
2019-04-10T05:56:41.139Z,979.29
2019-04-10T05:57:41.098Z,979.30
2019-04-10T05:58:41.061Z,979.31
2019-04-10T05:59:41.011Z,979.31
2019-04-10T06:00:41.029Z,979.36
2019-04-10T06:01:41.773Z,979.34
2019-04-10T06:02:41.794Z,979.32
2019-04-10T06:03:40.912Z,979.36
2019-04-10T06:04:41.215Z,979.28
2019-04-10T06:05:40.768Z,979.26
2019-04-10T06:06:40.878Z,979.29
2019-04-10T06:07:41.358Z,979.34
2019-04-10T06:08:41.467Z,979.30
2019-04-10T06:09:51.941Z,979.32
2019-04-10T06:10:41.528Z,979.30
2019-04-10T06:11:42.889Z,979.31
2019-04-10T06:12:40.470Z,979.29
2019-04-10T06:13:40.897Z,979.33
2019-04-10T06:14:40.391Z,979.29
2019-04-10T06:15:41.207Z,979.32
2019-04-10T06:16:40.582Z,979.38
2019-04-10T06:17:40.653Z,979.39
2019-04-10T06:18:40.219Z,979.34
2019-04-10T06:19:40.593Z,979.37
2019-04-10T06:20:40.138Z,979.35
2019-04-10T06:21:40.094Z,979.36
2019-04-10T06:22:40.850Z,979.38
2019-04-10T06:23:40.017Z,979.38
2019-04-10T06:24:40.498Z,979.36
2019-04-10T06:25:41.865Z,979.37
2019-04-10T06:26:39.893Z,979.40
2019-04-10T06:27:40.764Z,979.42
2019-04-10T06:28:40.091Z,979.38
2019-04-10T06:29:39.767Z,979.39
2019-04-10T06:30:39.781Z,979.36
2019-04-10T06:31:40.876Z,979.36
2019-04-10T06:32:39.748Z,979.39
2019-04-10T06:33:40.312Z,979.38
2019-04-10T06:34:40.734Z,979.40
2019-04-10T06:35:39.836Z,979.41
2019-04-10T06:36:39.698Z,979.42
2019-04-10T06:37:40.075Z,979.42
2019-04-10T06:38:39.391Z,979.38
2019-04-10T06:39:41.988Z,979.38
2019-04-10T06:40:39.308Z,979.39
2019-04-10T06:41:39.282Z,979.39
2019-04-10T06:42:48.572Z,979.38
2019-04-10T06:43:39.278Z,979.42
2019-04-10T06:44:39.142Z,979.37
2019-04-10T06:45:39.841Z,979.34
2019-04-10T06:46:40.298Z,979.38
2019-04-10T06:47:39.020Z,979.37
2019-04-10T06:48:38.977Z,979.37
2019-04-10T06:49:38.937Z,979.39
2019-04-10T06:50:39.234Z,979.40
2019-04-10T06:51:38.853Z,979.38
2019-04-10T06:52:38.810Z,979.37
2019-04-10T06:53:39.351Z,979.39
2019-04-10T06:54:38.730Z,979.38
2019-04-10T06:55:38.686Z,979.41
2019-04-10T06:56:38.643Z,979.41
2019-04-10T06:57:46.899Z,979.42
2019-04-10T06:58:38.564Z,979.41
2019-04-10T06:59:38.523Z,979.42
2019-04-10T07:00:39.078Z,979.48
2019-04-10T07:01:46.003Z,979.50
2019-04-10T07:02:38.772Z,979.50
2019-04-10T07:03:49.404Z,979.50
2019-04-10T07:04:46.039Z,979.55
2019-04-10T07:05:49.471Z,979.53
2019-04-10T07:06:51.638Z,979.56
2019-04-10T07:07:47.521Z,979.55
2019-04-10T07:08:38.228Z,979.55
2019-04-10T07:09:38.119Z,979.58
2019-04-10T07:10:48.249Z,979.56
2019-04-10T07:11:38.650Z,979.60
2019-04-10T07:12:38.009Z,979.62
2019-04-10T07:13:40.176Z,979.59
2019-04-10T07:14:38.453Z,979.58
2019-04-10T07:15:39.620Z,979.61
2019-04-10T07:16:37.815Z,979.61
2019-04-10T07:17:41.141Z,979.61
2019-04-10T07:18:38.743Z,979.61
2019-04-10T07:19:37.695Z,979.62
2019-04-10T07:20:37.875Z,979.64
2019-04-10T07:21:38.588Z,979.67
2019-04-10T07:22:44.577Z,979.68
2019-04-10T07:23:38.624Z,979.68
2019-04-10T07:24:41.202Z,979.69
2019-04-10T07:25:37.490Z,979.71
2019-04-10T07:26:41.684Z,979.73
2019-04-10T07:27:39.044Z,979.74
2019-04-10T07:28:38.982Z,979.73
2019-04-10T07:29:38.273Z,979.76
2019-04-10T07:30:38.072Z,979.76
2019-04-10T07:31:38.248Z,979.78
2019-04-10T07:32:41.197Z,979.77
2019-04-10T07:33:37.129Z,979.76
2019-04-10T07:34:37.220Z,979.78
2019-04-10T07:35:38.216Z,979.83
2019-04-10T07:36:40.069Z,979.82
2019-04-10T07:37:36.946Z,979.84
2019-04-10T07:38:37.162Z,979.86
2019-04-10T07:39:37.497Z,979.81
2019-04-10T07:40:36.948Z,979.88
2019-04-10T07:41:37.645Z,979.90
2019-04-10T07:42:38.830Z,979.92
2019-04-10T07:43:36.694Z,979.89
2019-04-10T07:44:36.658Z,979.90
2019-04-10T07:45:36.616Z,979.93
2019-04-10T07:46:36.572Z,979.94
2019-04-10T07:47:37.863Z,979.93
2019-04-10T07:48:36.487Z,979.95
2019-04-10T07:49:38.126Z,979.92
2019-04-10T07:50:37.120Z,979.96
2019-04-10T07:51:36.662Z,979.98
2019-04-10T07:52:37.177Z,979.97
2019-04-10T07:53:37.244Z,979.95
2019-04-10T07:54:36.239Z,979.99
2019-04-10T07:55:37.304Z,980.05
2019-04-10T07:56:36.157Z,979.99
2019-04-10T07:57:36.368Z,979.99
2019-04-10T07:58:36.088Z,980.03
2019-04-10T07:59:36.037Z,980.04
2019-04-10T08:00:36.658Z,980.05
2019-04-10T08:01:35.951Z,980.08
2019-04-10T08:02:35.911Z,980.06
2019-04-10T08:03:35.874Z,980.09
2019-04-10T08:04:35.833Z,980.10
2019-04-10T08:05:35.790Z,980.14
2019-04-10T08:06:35.747Z,980.13
2019-04-10T08:07:37.759Z,980.13
2019-04-10T08:08:36.248Z,980.16
2019-04-10T08:09:35.705Z,980.13
2019-04-10T08:10:36.807Z,980.16
2019-04-10T08:11:35.543Z,980.17
2019-04-10T08:12:42.421Z,980.20
2019-04-10T08:13:36.408Z,980.18
2019-04-10T08:14:35.730Z,980.15
2019-04-10T08:15:35.740Z,980.19
2019-04-10T08:16:35.336Z,980.19
2019-04-10T08:17:35.293Z,980.18
2019-04-10T08:18:35.274Z,980.20
2019-04-10T08:19:35.208Z,980.20
2019-04-10T08:20:35.167Z,980.18
2019-04-10T08:21:35.901Z,980.22
2019-04-10T08:22:35.089Z,980.23
2019-04-10T08:23:35.742Z,980.23
2019-04-10T08:24:35.008Z,980.20
2019-04-10T08:25:35.399Z,980.19
2019-04-10T08:26:34.922Z,980.21
2019-04-10T08:27:34.879Z,980.18
2019-04-10T08:28:35.019Z,980.22
2019-04-10T08:29:34.798Z,980.23
2019-04-10T08:30:34.767Z,980.24
2019-04-10T08:31:34.722Z,980.26
2019-04-10T08:32:47.301Z,980.25
2019-04-10T08:33:35.178Z,980.25
2019-04-10T08:34:35.749Z,980.30
2019-04-10T08:35:35.662Z,980.30
2019-04-10T08:36:35.296Z,980.31
2019-04-10T08:37:34.813Z,980.32
2019-04-10T08:38:34.515Z,980.35
2019-04-10T08:39:41.148Z,980.32
2019-04-10T08:40:34.359Z,980.35
2019-04-10T08:41:35.063Z,980.30
2019-04-10T08:42:35.110Z,980.32
2019-04-10T08:43:34.230Z,980.35
2019-04-10T08:44:34.194Z,980.38
2019-04-10T08:45:44.171Z,980.40
2019-04-10T08:46:34.105Z,980.43
2019-04-10T08:47:34.063Z,980.38
2019-04-10T08:48:34.654Z,980.41
2019-04-10T08:49:33.984Z,980.37
2019-04-10T08:50:34.444Z,980.39
2019-04-10T08:51:33.899Z,980.40
2019-04-10T08:52:34.608Z,980.44
2019-04-10T08:53:34.111Z,980.47
2019-04-10T08:54:34.336Z,980.46
2019-04-10T08:55:34.459Z,980.44
2019-04-10T08:56:33.707Z,980.44
2019-04-10T08:57:34.168Z,980.44
2019-04-10T08:58:33.617Z,980.47
2019-04-10T08:59:33.973Z,980.50
2019-04-10T09:00:34.325Z,980.46
2019-04-10T09:01:33.546Z,980.47
2019-04-10T09:02:33.873Z,980.48
2019-04-10T09:03:33.420Z,980.52
2019-04-10T09:04:33.649Z,980.49
2019-04-10T09:05:33.397Z,980.51
2019-04-10T09:06:33.612Z,980.52
2019-04-10T09:07:33.260Z,980.58
2019-04-10T09:08:33.219Z,980.56
2019-04-10T09:09:33.938Z,980.54
2019-04-10T09:10:33.140Z,980.56
2019-04-10T09:11:33.959Z,980.57
2019-04-10T09:12:33.700Z,980.51
2019-04-10T09:13:33.013Z,980.55
2019-04-10T09:14:33.011Z,980.53
2019-04-10T09:15:33.993Z,980.51
2019-04-10T09:16:32.897Z,980.52
2019-04-10T09:17:33.402Z,980.59
2019-04-10T09:18:33.543Z,980.57
2019-04-10T09:19:33.693Z,980.57
2019-04-10T09:20:33.046Z,980.53
2019-04-10T09:21:32.696Z,980.50
2019-04-10T09:22:47.940Z,980.50
2019-04-10T09:23:40.756Z,980.45
2019-04-10T09:24:32.571Z,980.52
2019-04-10T09:25:33.388Z,980.51
2019-04-10T09:26:32.731Z,980.50
2019-04-10T09:27:32.458Z,980.59
2019-04-10T09:28:32.784Z,980.54
2019-04-10T09:29:32.378Z,980.53
2019-04-10T09:30:33.841Z,980.47
2019-04-10T09:31:32.297Z,980.50
2019-04-10T09:32:32.645Z,980.58
2019-04-10T09:33:32.407Z,980.59
2019-04-10T09:34:32.181Z,980.59
2019-04-10T09:35:32.867Z,980.60
2019-04-10T09:36:33.247Z,980.55
2019-04-10T09:37:32.601Z,980.63
2019-04-10T09:51:43.665Z,980.50
2019-04-10T09:52:35.958Z,980.52
2019-04-10T09:53:37.077Z,980.55
2019-04-10T09:54:35.889Z,980.59
2019-04-10T09:55:36.308Z,980.60
2019-04-10T09:56:36.409Z,980.59
2019-04-10T09:57:36.609Z,980.51
2019-04-10T09:58:35.707Z,980.52
2019-04-10T09:59:37.931Z,980.56
2019-04-10T10:00:36.062Z,980.49
2019-04-10T10:01:35.840Z,980.56
2019-04-10T10:02:35.791Z,980.56
2019-04-10T10:03:36.627Z,980.57
2019-04-10T10:04:35.526Z,980.58
2019-04-10T10:05:35.421Z,980.61
2019-04-10T10:06:36.711Z,980.66
2019-04-10T10:07:35.336Z,980.62
2019-04-10T10:08:35.936Z,980.63
2019-04-10T10:09:35.274Z,980.65
2019-04-10T10:10:36.779Z,980.62
2019-04-10T10:11:36.337Z,980.62
2019-04-10T10:12:36.331Z,980.57
2019-04-10T10:13:35.098Z,980.58
2019-04-10T10:14:35.797Z,980.59
2019-04-10T10:15:35.595Z,980.61
2019-04-10T10:16:35.786Z,980.59
2019-04-10T10:17:34.950Z,980.58
2019-04-10T10:18:35.303Z,980.56
2019-04-10T10:19:34.862Z,980.63
2019-04-10T10:20:35.609Z,980.63
2019-04-10T10:21:34.780Z,980.63
2019-04-10T10:22:34.743Z,980.58
2019-04-10T10:23:34.705Z,980.62
2019-04-10T10:24:35.033Z,980.64
2019-04-10T10:25:35.335Z,980.67
2019-04-10T10:26:34.582Z,980.58
2019-04-10T10:27:34.542Z,980.62
2019-04-10T10:28:35.347Z,980.64
2019-04-10T10:29:35.537Z,980.68
2019-04-10T10:30:43.984Z,980.66
2019-04-10T10:32:39.279Z,980.67
2019-04-10T10:33:39.514Z,980.72
2019-04-10T10:34:38.792Z,980.72
2019-04-10T10:35:38.991Z,980.67
2019-04-10T10:36:42.023Z,980.72
2019-04-10T10:37:38.885Z,980.72
2019-04-10T10:38:38.996Z,980.68
2019-04-10T10:39:39.001Z,980.64
2019-04-10T10:40:39.344Z,980.67
2019-04-10T10:41:38.459Z,980.62
2019-04-10T10:42:39.624Z,980.58
2019-04-10T10:43:38.387Z,980.59
2019-04-10T10:44:38.433Z,980.63
2019-04-10T10:45:38.723Z,980.66
2019-04-10T10:46:38.259Z,980.63
2019-04-10T10:47:38.220Z,980.64
2019-04-10T10:48:38.190Z,980.70
2019-04-10T10:49:38.145Z,980.61
2019-04-10T10:50:38.106Z,980.71
2019-04-10T10:51:39.134Z,980.67
2019-04-10T10:52:38.022Z,980.66
2019-04-10T10:53:38.598Z,980.72
2019-04-10T10:54:37.947Z,980.73
2019-04-10T10:55:38.001Z,980.74
2019-04-10T10:56:38.213Z,980.66
2019-04-10T10:57:37.828Z,980.72
2019-04-10T10:58:37.791Z,980.67
2019-04-10T10:59:37.754Z,980.65
2019-04-10T11:00:38.896Z,980.68
2019-04-10T11:01:38.015Z,980.68
2019-04-10T11:02:37.944Z,980.71
2019-04-10T11:03:38.250Z,980.70
2019-04-10T11:04:37.854Z,980.66
2019-04-10T11:05:37.522Z,980.65
2019-04-10T11:06:49.377Z,980.62
2019-04-10T11:07:38.663Z,980.64
2019-04-10T11:08:37.409Z,980.61
2019-04-10T11:09:37.369Z,980.64
2019-04-10T11:10:37.328Z,980.61
2019-04-10T11:11:37.288Z,980.66
2019-04-10T11:12:38.429Z,980.71
2019-04-10T11:13:37.241Z,980.76
2019-04-10T11:14:37.228Z,980.69
2019-04-10T11:15:41.827Z,980.69
2019-04-10T11:16:37.093Z,980.70
2019-04-10T11:17:38.256Z,980.71
2019-04-10T11:18:37.773Z,980.71
2019-04-10T11:19:37.141Z,980.73
2019-04-10T11:20:37.059Z,980.75
2019-04-10T11:21:36.908Z,980.72
2019-04-10T11:22:37.705Z,980.71
2019-04-10T11:23:37.594Z,980.64
2019-04-10T11:24:38.261Z,980.71
2019-04-10T11:25:37.730Z,980.69
2019-04-10T11:26:37.587Z,980.74
2019-04-10T11:27:36.672Z,980.69
2019-04-10T11:28:36.849Z,980.75
2019-04-10T11:29:37.662Z,980.74
2019-04-10T11:30:36.555Z,980.69
2019-04-10T11:31:38.116Z,980.68
2019-04-10T11:32:36.957Z,980.69
2019-04-10T11:33:37.305Z,980.70
2019-04-10T11:34:36.408Z,980.71
2019-04-10T11:35:37.334Z,980.67
2019-04-10T11:36:36.324Z,980.66
2019-04-10T11:37:43.838Z,980.66
2019-04-10T11:38:37.383Z,980.75
2019-04-10T11:39:40.428Z,980.72
2019-04-10T11:40:36.525Z,980.70
2019-04-10T11:41:37.372Z,980.68
2019-04-10T11:42:37.166Z,980.69
2019-04-10T11:43:37.537Z,980.75
2019-04-10T11:44:36.680Z,980.76
2019-04-10T11:46:37.962Z,980.78
2019-04-10T11:47:36.434Z,980.69
2019-04-10T11:48:36.625Z,980.78
2019-04-10T11:49:36.845Z,980.72
2019-04-10T11:50:38.099Z,980.76
2019-04-10T11:51:36.734Z,980.79
2019-04-10T11:52:40.207Z,980.76
2019-04-10T11:53:37.873Z,980.76
2019-04-10T11:54:40.471Z,980.77
2019-04-10T11:55:43.155Z,980.75
2019-04-10T11:56:36.248Z,980.68
2019-04-10T11:57:37.201Z,980.74
2019-04-10T11:58:43.887Z,980.70
2019-04-10T11:59:37.949Z,980.74
2019-04-10T12:00:45.342Z,980.83
2019-04-10T12:01:36.829Z,980.74
2019-04-10T12:02:36.948Z,980.75
2019-04-10T12:03:37.127Z,980.77
2019-04-10T12:04:45.341Z,980.73
2019-04-10T12:05:36.681Z,980.75
2019-04-10T12:06:37.612Z,980.76
2019-04-10T12:08:06.047Z,980.79
2019-04-10T12:08:55.067Z,980.80
2019-04-10T12:11:35.135Z,980.80
2019-04-10T12:12:35.471Z,980.80
2019-04-10T12:13:34.912Z,980.78
2019-04-10T12:14:35.392Z,980.82
2019-04-10T12:15:34.837Z,980.80
2019-04-10T12:16:34.804Z,980.81
2019-04-10T12:17:34.757Z,980.80
2019-04-10T12:18:35.061Z,980.88
2019-04-10T12:19:34.686Z,980.82
2019-04-10T12:20:35.445Z,980.85
2019-04-10T12:21:34.740Z,980.84
2019-04-10T12:22:34.570Z,980.82
2019-04-10T12:23:34.760Z,980.86
2019-04-10T12:24:34.490Z,980.86
2019-04-10T12:25:34.686Z,980.84
2019-04-10T12:26:34.415Z,980.83
2019-04-10T12:27:34.378Z,980.87
2019-04-10T12:28:34.341Z,980.83
2019-04-10T12:29:34.996Z,980.89
2019-04-10T12:30:35.238Z,980.87
2019-04-10T12:31:34.591Z,980.85
2019-04-10T12:32:34.185Z,980.84
2019-04-10T12:33:34.150Z,980.84
2019-04-10T12:34:34.183Z,980.85
2019-04-10T12:35:34.070Z,980.83
2019-04-10T12:36:34.344Z,980.84
2019-04-10T12:37:34.967Z,980.84
2019-04-10T12:38:34.052Z,980.84
2019-04-10T12:39:33.919Z,980.84
2019-04-10T12:40:34.850Z,980.87
2019-04-10T12:41:33.845Z,980.88
2019-04-10T12:42:34.567Z,980.84
2019-04-10T12:43:34.708Z,980.84
2019-04-10T12:44:33.778Z,980.83
2019-04-10T12:45:33.687Z,980.88
2019-04-10T12:46:33.648Z,980.84
2019-04-10T12:47:34.224Z,980.86
2019-04-10T12:48:34.644Z,980.89
2019-04-10T12:49:33.889Z,980.89
2019-04-10T12:50:33.503Z,980.88
2019-04-10T12:51:34.828Z,980.85
2019-04-10T12:52:34.493Z,980.88
2019-04-10T12:53:33.841Z,980.88
2019-04-10T12:54:33.478Z,980.89
2019-04-10T12:55:33.306Z,980.85
2019-04-10T12:56:33.267Z,980.89
2019-04-10T12:57:33.228Z,980.86
2019-04-10T12:58:33.188Z,980.85
2019-04-10T12:59:33.215Z,980.87